Time;durP1;ratioP1;P1;durP2;ratioP2;P2;SDS_P1;SDS_P2;PMS_P1;PMS_P2;Temp;Humidity;BMP_temperature;BMP_pressure;BME280_temperature;BME280_humidity;BME280_pressure;Samples;Min_cycle;Max_cycle;Signal;HPM_P1;HPM_P2
2023/03/08 00:01:24;;;;;;;1.67;1.20;;;1.80;99.90;;;1.55;77.67;98305.28;6276680;22;20224;-73
2023/03/08 00:03:57;;;;;;;1.67;1.30;;;1.80;99.90;;;1.55;77.76;98305.28;6276137;22;20259;-71
2023/03/08 00:06:27;;;;;;;3.37;1.23;;;1.80;99.90;;;1.49;77.43;98303.59;6226387;22;1192605;-71
2023/03/08 00:08:58;;;;;;;1.60;1.50;;;1.70;99.90;;;1.48;77.55;98311.25;6278425;22;20211;-72
2023/03/08 00:11:27;;;;;;;1.40;1.30;;;1.70;99.90;;;1.42;78.60;98307.00;6278949;22;20210;-72
2023/03/08 00:13:56;;;;;;;1.60;1.40;;;1.70;99.90;;;1.41;78.63;98301.09;6278544;22;20635;-73
2023/03/08 00:16:27;;;;;;;3.40;1.93;;;1.70;99.90;;;1.40;78.31;98306.16;6278601;22;20622;-72
2023/03/08 00:18:57;;;;;;;2.90;1.80;;;1.70;99.90;;;1.38;78.23;98306.19;6279669;22;20157;-72
2023/03/08 00:21:25;;;;;;;2.13;1.73;;;1.60;99.90;;;1.36;78.45;98302.81;6278966;22;20250;-71
2023/03/08 00:23:54;;;;;;;1.87;1.77;;;1.70;99.90;;;1.33;78.92;98292.66;6279326;22;20246;-72
2023/03/08 00:26:23;;;;;;;2.30;1.80;;;1.60;99.90;;;1.30;78.41;98290.13;6278406;22;20222;-71
2023/03/08 00:28:51;;;;;;;3.00;1.97;;;1.60;99.90;;;1.28;78.55;98284.22;6279237;22;20197;-71
2023/03/08 00:31:20;;;;;;;2.50;1.73;;;1.60;99.90;;;1.26;78.70;98291.00;6279695;22;20177;-72
2023/03/08 00:33:52;;;;;;;4.10;2.17;;;1.60;99.90;;;1.24;78.61;98292.69;6279503;22;20226;-73
2023/03/08 00:36:24;;;;;;;2.00;1.80;;;1.50;99.90;;;1.25;78.16;98298.59;6279697;22;20161;-71
2023/03/08 00:38:53;;;;;;;3.77;2.20;;;1.50;99.90;;;1.26;78.41;98295.22;6279429;22;20214;-72
2023/03/08 00:41:22;;;;;;;5.47;2.53;;;1.50;99.90;;;1.25;78.86;98304.50;6279984;22;20196;-72
2023/03/08 00:43:50;;;;;;;2.73;2.07;;;1.60;99.90;;;1.26;78.50;98296.06;6279771;22;20474;-70
2023/03/08 00:46:19;;;;;;;3.57;2.30;;;1.50;99.90;;;1.26;78.48;98293.53;6279292;22;20226;-72
2023/03/08 00:48:47;;;;;;;2.20;2.00;;;1.50;99.90;;;1.25;78.79;98298.59;6279261;22;20621;-71
2023/03/08 00:51:18;;;;;;;2.43;2.00;;;1.50;99.90;;;1.19;78.80;98304.53;6278952;22;20198;-72
2023/03/08 00:53:48;;;;;;;2.13;1.87;;;1.50;99.90;;;1.16;78.82;98302.84;6280146;22;20161;-64
2023/03/08 00:56:17;;;;;;;3.13;2.23;;;1.40;99.90;;;1.12;79.07;98307.94;6280606;22;20222;-68
2023/03/08 00:58:46;;;;;;;2.63;2.20;;;1.40;99.90;;;1.07;78.73;98297.81;6280108;22;20227;-66
2023/03/08 01:01:17;;;;;;;2.27;2.00;;;1.40;99.90;;;1.07;79.63;98305.41;6280161;22;20907;-66
2023/03/08 01:03:46;;;;;;;1.97;1.77;;;1.40;99.90;;;1.05;79.23;98302.03;6280368;22;20180;-66
2023/03/08 01:06:15;;;;;;;2.93;1.90;;;1.30;99.90;;;1.02;79.09;98293.56;6279705;22;20223;-66
2023/03/08 01:08:45;;;;;;;3.60;1.90;;;1.30;99.90;;;0.98;78.79;98294.44;6279437;22;20169;-64
2023/03/08 01:11:19;;;;;;;1.73;1.63;;;1.30;99.90;;;0.95;79.30;98288.50;6279830;22;20177;-66
2023/03/08 01:13:48;;;;;;;4.47;2.10;;;1.20;99.90;;;0.94;79.23;98296.97;6279748;22;20270;-66
2023/03/08 01:16:19;;;;;;;3.37;1.70;;;1.20;99.90;;;0.89;78.81;98291.06;6279800;22;20230;-65
2023/03/08 01:18:48;;;;;;;1.40;1.20;;;1.20;99.90;;;0.85;79.03;98294.47;6279593;22;20157;-64
2023/03/08 01:21:17;;;;;;;2.00;1.47;;;1.10;99.90;;;0.85;78.75;98296.16;6279822;22;20199;-64
2023/03/08 01:23:47;;;;;;;1.60;1.50;;;1.10;99.90;;;0.85;79.30;98301.22;6280012;22;20646;-65
2023/03/08 01:26:19;;;;;;;1.37;1.20;;;1.10;99.90;;;0.86;79.31;98291.06;6279935;22;20610;-67
2023/03/08 01:28:48;;;;;;;1.57;1.40;;;1.10;99.90;;;0.84;79.44;98282.59;6279650;22;20715;-66
2023/03/08 01:31:20;;;;;;;2.30;1.83;;;1.10;99.90;;;0.84;78.88;98282.59;6279664;22;20223;-67
2023/03/08 01:33:50;;;;;;;2.60;2.03;;;1.10;99.90;;;0.82;78.99;98289.38;6279661;22;20188;-65
2023/03/08 01:36:21;;;;;;;1.90;1.43;;;1.10;99.90;;;0.81;79.25;98290.25;6280081;22;20610;-64
2023/03/08 01:38:50;;;;;;;2.33;1.40;;;1.10;99.90;;;0.78;78.99;98286.84;6279379;22;20603;-64
2023/03/08 01:41:23;;;;;;;1.90;1.63;;;1.10;99.90;;;0.75;79.26;98272.50;6279618;22;20226;-66
2023/03/08 01:43:52;;;;;;;3.70;1.63;;;1.10;99.90;;;0.79;79.31;98274.16;6279956;22;20509;-67
2023/03/08 01:46:26;;;;;;;2.07;1.53;;;1.10;99.90;;;0.79;79.70;98274.16;6280400;22;20177;-65
2023/03/08 01:49:02;;;;;;;2.17;1.50;;;1.10;99.90;;;0.80;79.38;98286.00;6279885;22;20172;-66
2023/03/08 01:51:37;;;;;;;2.03;1.30;;;1.10;99.90;;;0.80;79.52;98280.91;6279715;22;20546;-65
2023/03/08 01:54:10;;;;;;;4.83;1.40;;;1.00;99.90;;;0.82;78.95;98281.78;6279440;22;20597;-68
2023/03/08 01:56:42;;;;;;;3.90;1.63;;;1.10;99.90;;;0.80;78.70;98280.91;6279863;22;20165;-67
2023/03/08 01:59:11;;;;;;;1.97;1.33;;;1.00;99.90;;;0.81;78.90;98286.81;6279734;22;20498;-67
2023/03/08 02:01:40;;;;;;;1.90;1.23;;;1.00;99.90;;;0.76;79.07;98279.22;6279184;22;20252;-67
2023/03/08 02:04:11;;;;;;;1.93;1.57;;;1.00;99.90;;;0.75;78.67;98280.09;6279638;22;20197;-65
2023/03/08 02:06:40;;;;;;;2.53;1.73;;;1.00;99.90;;;0.76;78.89;98284.31;6279246;22;20601;-67
2023/03/08 02:09:08;;;;;;;3.07;1.67;;;1.00;99.90;;;0.79;78.65;98288.53;6279048;22;20177;-66
2023/03/08 02:11:40;;;;;;;1.93;1.40;;;1.00;99.90;;;0.78;78.81;98290.22;6278569;22;20176;-65
2023/03/08 02:14:09;;;;;;;2.03;1.50;;;1.00;99.90;;;0.78;78.89;98285.16;6279344;22;20157;-65
2023/03/08 02:16:38;;;;;;;2.50;1.67;;;1.10;99.90;;;0.77;78.77;98285.97;6279152;22;20195;-66
2023/03/08 02:19:16;;;;;;;3.37;1.90;;;1.10;99.90;;;0.77;78.91;98285.97;6279212;22;20498;-66
2023/03/08 02:21:45;;;;;;;3.10;2.43;;;1.00;99.90;;;0.77;78.74;98293.59;6279297;22;20591;-67
2023/03/08 02:24:21;;;;;;;3.67;2.13;;;1.00;99.90;;;0.77;78.91;98291.06;6278637;22;20196;-65
2023/03/08 02:26:52;;;;;;;2.93;1.77;;;1.10;99.90;;;0.78;78.41;98287.69;6278214;22;20157;-66
2023/03/08 02:29:20;;;;;;;2.67;2.00;;;1.00;99.90;;;0.79;78.64;98299.53;6278641;22;20196;-65
2023/03/08 02:31:49;;;;;;;4.13;2.30;;;1.00;99.90;;;0.80;78.43;98306.28;6278914;22;20203;-67
2023/03/08 02:34:18;;;;;;;4.77;2.57;;;1.00;99.90;;;0.80;78.23;98306.28;6279278;22;20172;-67
2023/03/08 02:36:46;;;;;;;2.57;1.73;;;1.10;99.90;;;0.84;78.32;98307.13;6279729;22;20531;-66
2023/03/08 02:39:15;;;;;;;4.13;1.93;;;1.10;99.90;;;0.84;78.18;98307.94;6278688;22;20181;-67
2023/03/08 02:41:44;;;;;;;4.00;2.23;;;1.10;99.90;;;0.85;77.79;98309.66;6279194;22;20173;-67
2023/03/08 02:44:13;;;;;;;5.53;2.07;;;1.10;99.90;;;0.86;77.58;98315.56;6279167;22;20200;-65
2023/03/08 02:46:41;;;;;;;2.77;1.77;;;1.20;99.90;;;0.84;77.46;98317.25;6279470;22;20183;-67
2023/03/08 02:49:10;;;;;;;2.07;1.70;;;1.10;99.90;;;0.85;77.51;98324.88;6278865;22;20493;-65
2023/03/08 02:51:38;;;;;;;2.37;1.70;;;1.10;99.90;;;0.85;77.82;98317.28;6278788;22;20172;-68
2023/03/08 02:54:06;;;;;;;2.07;1.73;;;1.10;99.90;;;0.85;77.31;98312.19;6278894;22;20173;-64
2023/03/08 02:56:36;;;;;;;3.10;1.53;;;1.10;99.90;;;0.85;77.54;98321.50;6278695;22;20184;-66
2023/03/08 02:59:06;;;;;;;4.47;1.90;;;1.20;99.90;;;0.85;77.14;98329.94;6279539;22;20195;-66
2023/03/08 03:01:35;;;;;;;5.57;2.00;;;1.10;99.90;;;0.85;76.95;98324.88;6280542;22;20226;-66
2023/03/08 03:04:03;;;;;;;3.50;1.70;;;1.10;99.90;;;0.84;77.48;98327.41;6280030;22;20287;-66
2023/03/08 03:06:33;;;;;;;3.13;1.90;;;1.10;99.90;;;0.85;77.00;98324.88;6279922;22;20204;-67
2023/03/08 03:09:05;;;;;;;4.23;2.00;;;1.10;99.90;;;0.87;76.88;98338.38;6280732;22;20315;-65
2023/03/08 03:11:33;;;;;;;2.47;1.47;;;1.10;99.90;;;0.87;76.87;98340.91;6280464;22;20161;-66
2023/03/08 03:14:02;;;;;;;3.00;1.87;;;1.10;99.90;;;0.86;77.42;98339.22;6280639;22;20184;-67
2023/03/08 03:16:33;;;;;;;2.30;1.40;;;1.20;99.90;;;0.87;77.12;98332.47;6279996;22;20176;-66
2023/03/08 03:19:01;;;;;;;1.37;1.03;;;1.10;99.90;;;0.87;76.94;98342.59;6280569;22;20165;-66
2023/03/08 03:21:29;;;;;;;4.10;1.87;;;1.20;99.90;;;0.88;77.08;98346.81;6280811;22;20278;-67
2023/03/08 03:23:58;;;;;;;1.87;1.23;;;1.20;99.90;;;0.90;77.37;98348.53;6280297;22;20204;-66
2023/03/08 03:26:27;;;;;;;3.33;1.40;;;1.20;99.90;;;0.92;77.06;98354.47;6281193;22;20250;-69
2023/03/08 03:28:57;;;;;;;2.40;1.70;;;1.20;99.90;;;0.93;77.16;98356.13;6280252;22;20195;-64
2023/03/08 03:31:26;;;;;;;2.13;1.40;;;1.20;99.90;;;0.93;77.08;98351.06;6280188;22;20172;-66
2023/03/08 03:33:56;;;;;;;2.43;1.80;;;1.20;99.90;;;0.94;77.43;98344.28;6280516;22;20181;-66
2023/03/08 03:36:25;;;;;;;4.50;2.30;;;1.20;99.90;;;0.96;77.39;98361.22;6280626;22;20179;-66
2023/03/08 03:38:53;;;;;;;3.73;1.70;;;1.30;99.90;;;0.96;77.17;98370.50;6280362;22;20173;-67
2023/03/08 03:41:23;;;;;;;2.47;2.27;;;1.30;99.90;;;0.95;77.44;98351.91;6280420;22;20735;-65
2023/03/08 03:43:52;;;;;;;3.00;2.00;;;1.20;99.90;;;0.94;77.23;98362.06;6280019;22;20204;-67
2023/03/08 03:46:22;;;;;;;5.50;2.80;;;1.20;99.90;;;0.95;77.50;98366.25;6280404;22;20172;-64
2023/03/08 03:48:50;;;;;;;2.80;2.27;;;1.20;99.90;;;0.95;77.47;98367.09;6253515;22;20210;-65
2023/03/08 03:51:22;;;;;;;4.00;2.40;;;1.20;99.90;;;0.94;77.85;98372.19;6279877;22;20252;-67
2023/03/08 03:53:51;;;;;;;4.17;2.60;;;1.20;99.90;;;0.93;77.75;98371.34;6279875;22;20656;-67
2023/03/08 03:56:22;;;;;;;4.87;2.60;;;1.20;99.90;;;0.92;78.18;98382.34;6279958;22;20176;-65
2023/03/08 03:58:51;;;;;;;4.97;3.23;;;1.20;99.90;;;0.92;78.40;98377.28;6279782;22;20165;-65
2023/03/08 04:01:23;;;;;;;2.90;2.60;;;1.20;99.90;;;0.90;78.04;98394.16;6280356;22;20173;-66
2023/03/08 04:03:53;;;;;;;5.13;3.07;;;1.20;99.90;;;0.89;78.29;98382.34;6280418;22;20185;-66
2023/03/08 04:06:25;;;;;;;4.13;3.17;;;1.20;99.90;;;0.89;79.06;98389.09;6279511;22;20201;-67
2023/03/08 04:08:55;;;;;;;4.67;3.33;;;1.20;99.90;;;0.86;78.65;98389.09;6279743;22;20165;-66
2023/03/08 04:11:27;;;;;;;5.00;3.60;;;1.20;99.90;;;0.84;78.76;98389.09;6279894;22;20231;-66
2023/03/08 04:13:55;;;;;;;5.60;3.63;;;1.20;99.90;;;0.82;79.28;98392.47;6279874;22;20492;-65
2023/03/08 04:16:26;;;;;;;4.40;3.67;;;1.20;99.90;;;0.82;79.34;98400.09;6279789;22;20176;-65
2023/03/08 04:18:59;;;;;;;4.60;3.93;;;1.20;99.90;;;0.83;79.33;98391.63;6279361;22;20239;-66
2023/03/08 04:21:29;;;;;;;6.63;3.70;;;1.10;99.90;;;0.83;79.83;98389.94;6280291;22;20177;-66
2023/03/08 04:23:58;;;;;;;5.77;4.07;;;1.20;99.90;;;0.85;79.55;98390.78;6279823;22;20189;-68
2023/03/08 04:26:28;;;;;;;9.70;5.00;;;1.20;99.90;;;0.87;79.80;98384.03;6279724;22;20207;-64
2023/03/08 04:28:56;;;;;;;6.67;4.70;;;1.20;99.90;;;0.87;79.47;98389.09;6279782;22;20826;-65
2023/03/08 04:31:28;;;;;;;5.77;4.53;;;1.20;99.90;;;0.86;79.76;98377.25;6279482;22;20177;-66
2023/03/08 04:33:57;;;;;;;6.70;4.93;;;1.20;99.90;;;0.85;79.58;98385.72;6280325;22;20319;-65
2023/03/08 04:36:25;;;;;;;6.43;4.63;;;1.20;99.90;;;0.85;80.17;98384.88;6279647;22;20180;-67
2023/03/08 04:38:55;;;;;;;6.93;4.57;;;1.20;99.90;;;0.85;79.75;98384.88;6279496;22;20181;-66
2023/03/08 04:41:24;;;;;;;6.70;4.57;;;1.20;99.90;;;0.81;79.57;98393.31;6280216;22;20176;-66
2023/03/08 04:43:55;;;;;;;9.40;5.47;;;1.20;99.90;;;0.79;79.80;98398.38;6279569;22;20570;-66
2023/03/08 04:46:27;;;;;;;6.60;5.20;;;1.10;99.90;;;0.79;79.85;98410.22;6280095;22;20161;-66
2023/03/08 04:48:57;;;;;;;7.17;4.83;;;1.20;99.90;;;0.78;79.92;98416.97;6279812;22;20248;-67
2023/03/08 04:51:26;;;;;;;9.23;5.60;;;1.20;99.90;;;0.77;80.12;98415.25;6279525;22;20177;-67
2023/03/08 04:53:56;;;;;;;7.90;5.30;;;1.10;99.90;;;0.76;80.34;98416.13;6279793;22;20172;-67
2023/03/08 04:56:25;;;;;;;7.47;5.83;;;1.10;99.90;;;0.77;79.93;98422.03;6279131;22;20184;-66
2023/03/08 04:58:53;;;;;;;9.37;5.73;;;1.10;99.90;;;0.78;79.86;98422.06;6280196;22;20184;-65
2023/03/08 05:01:23;;;;;;;6.43;5.13;;;1.10;99.90;;;0.78;80.21;98421.22;6280088;22;20634;-65
2023/03/08 05:03:52;;;;;;;7.03;5.20;;;1.10;99.90;;;0.80;80.33;98420.34;6279813;22;20272;-68
2023/03/08 05:06:23;;;;;;;6.93;5.60;;;1.10;99.90;;;0.81;80.47;98431.31;6279599;22;20266;-64
2023/03/08 05:08:51;;;;;;;8.10;5.63;;;1.10;99.90;;;0.80;80.67;98430.50;6279414;22;20226;-66
2023/03/08 05:11:24;;;;;;;11.33;6.70;;;1.20;99.90;;;0.81;80.20;98434.75;6279602;22;20201;-66
2023/03/08 05:13:54;;;;;;;7.47;6.03;;;1.10;99.90;;;0.81;80.02;98421.19;6279448;22;20234;-66
2023/03/08 05:16:23;;;;;;;10.70;7.00;;;1.10;99.90;;;0.83;80.03;98433.03;6279385;22;20200;-64
2023/03/08 05:18:51;;;;;;;9.20;6.20;;;1.10;99.90;;;0.83;79.64;98433.03;6278565;22;20180;-64
2023/03/08 05:21:22;;;;;;;9.97;6.80;;;1.10;99.90;;;0.84;79.65;98444.84;6280376;22;20230;-67
2023/03/08 05:23:50;;;;;;;9.20;7.03;;;1.10;99.90;;;0.84;79.50;98439.78;6279463;22;20164;-67
2023/03/08 05:26:20;;;;;;;9.23;6.73;;;1.20;99.90;;;0.85;79.68;98440.66;6279643;22;20183;-66
2023/03/08 05:28:49;;;;;;;8.20;6.37;;;1.20;99.90;;;0.86;79.49;98448.25;6279403;22;20261;-66
2023/03/08 05:31:20;;;;;;;8.27;6.10;;;1.20;99.90;;;0.89;79.40;98450.81;6279568;22;20172;-66
2023/03/08 05:33:51;;;;;;;8.63;6.27;;;1.20;99.90;;;0.87;79.38;98452.47;6279643;22;20193;-65
2023/03/08 05:36:20;;;;;;;8.53;6.47;;;1.20;99.90;;;0.86;79.03;98453.31;6279623;22;20183;-66
2023/03/08 05:38:52;;;;;;;9.73;6.60;;;1.20;99.90;;;0.86;79.19;98458.41;6279560;22;20199;-67
2023/03/08 05:41:22;;;;;;;8.00;6.27;;;1.20;99.90;;;0.86;78.16;98462.63;6280260;22;20590;-66
2023/03/08 05:43:50;;;;;;;7.87;6.83;;;1.10;99.90;;;0.83;78.40;98460.06;6279948;22;20618;-66
2023/03/08 05:46:19;;;;;;;9.43;6.90;;;1.10;99.90;;;0.81;78.27;98465.16;6279761;22;20177;-67
2023/03/08 05:48:48;;;;;;;8.03;6.47;;;1.10;99.90;;;0.78;77.78;98477.81;6279355;22;20184;-67
2023/03/08 05:51:18;;;;;;;9.03;6.13;;;1.10;99.90;;;0.77;78.27;98481.19;6279238;22;20184;-65
2023/03/08 05:53:47;;;;;;;7.00;5.83;;;1.10;99.90;;;0.77;78.04;98490.47;6279424;22;20172;-67
2023/03/08 05:56:18;;;;;;;10.03;6.80;;;1.10;99.90;;;0.76;77.92;98484.56;6278832;22;20173;-66
2023/03/08 05:58:47;;;;;;;10.37;7.17;;;1.10;99.90;;;0.78;77.68;98492.19;6292510;22;20190;-68
2023/03/08 06:01:18;;;;;;;10.27;7.03;;;1.10;99.90;;;0.75;77.73;98494.72;6294638;22;20191;-68
2023/03/08 06:03:49;;;;;;;9.93;6.77;;;1.00;99.90;;;0.73;77.73;98507.38;6296002;22;20171;-68
2023/03/08 06:06:18;;;;;;;7.00;6.27;;;1.00;99.90;;;0.72;77.84;98505.69;6295789;22;20205;-67
2023/03/08 06:08:47;;;;;;;8.97;7.17;;;1.00;99.90;;;0.71;77.17;98511.59;6297130;22;20173;-67
2023/03/08 06:11:17;;;;;;;9.03;6.67;;;1.00;99.90;;;0.69;77.54;98525.94;6296108;22;20168;-67
2023/03/08 06:13:46;;;;;;;7.93;6.40;;;1.00;99.90;;;0.67;77.25;98531.03;6298115;22;20157;-68
2023/03/08 06:16:15;;;;;;;10.13;6.47;;;1.00;99.90;;;0.69;77.19;98538.63;6298067;22;20173;-67
2023/03/08 06:18:44;;;;;;;9.50;6.37;;;1.00;99.90;;;0.67;76.56;98547.91;6299282;22;20183;-67
2023/03/08 06:21:15;;;;;;;8.77;6.13;;;1.00;99.90;;;0.71;76.62;98544.56;6298637;22;20223;-67
2023/03/08 06:23:45;;;;;;;9.37;5.83;;;1.00;99.90;;;0.76;75.97;98544.56;6298202;22;20683;-66
2023/03/08 06:26:15;;;;;;;10.53;6.10;;;1.00;99.90;;;0.86;76.24;98549.66;6297490;22;20200;-66
2023/03/08 06:28:44;;;;;;;9.67;5.93;;;1.20;99.90;;;0.98;75.00;98548.00;6298077;22;20196;-67
2023/03/08 06:31:16;;;;;;;7.40;5.33;;;1.20;99.90;;;1.03;74.15;98546.31;6298911;22;20184;-67
2023/03/08 06:33:45;;;;;;;9.37;6.20;;;1.30;99.90;;;1.15;73.62;98561.59;6297361;22;20169;-67
2023/03/08 06:36:17;;;;;;;9.27;5.40;;;1.40;99.90;;;1.23;73.71;98557.38;6297593;22;20173;-67
2023/03/08 06:38:46;;;;;;;9.57;5.83;;;1.60;99.90;;;1.30;72.49;98564.16;6297429;22;20161;-67
2023/03/08 06:41:17;;;;;;;7.00;4.73;;;1.60;99.90;;;1.33;72.37;98550.63;6296506;22;20338;-68
2023/03/08 06:43:46;;;;;;;7.97;5.73;;;1.70;99.90;;;1.56;71.46;98558.25;6295026;22;20157;-67
2023/03/08 06:46:19;;;;;;;9.23;5.83;;;1.90;99.90;;;1.82;71.35;98571.78;6293594;22;20227;-67
2023/03/08 06:48:48;;;;;;;8.83;5.33;;;2.20;99.90;;;1.94;70.01;98587.00;6295480;22;20145;-66
2023/03/08 06:51:18;;;;;;;6.83;5.70;;;2.30;99.90;;;1.97;69.86;98580.25;6297143;22;20164;-67
2023/03/08 06:53:47;;;;;;;6.17;5.23;;;2.30;99.90;;;2.02;69.74;98591.25;6296314;22;20177;-67
2023/03/08 06:56:17;;;;;;;11.20;5.17;;;2.30;99.90;;;2.03;68.45;98582.81;6295489;22;20179;-66
2023/03/08 06:58:46;;;;;;;8.37;5.47;;;2.40;99.90;;;2.16;69.19;98592.09;6298859;22;20157;-69
2023/03/08 07:01:18;;;;;;;6.37;5.17;;;2.60;99.90;;;2.47;68.90;98589.47;6304096;22;20169;-70
2023/03/08 07:03:47;;;;;;;10.10;6.03;;;2.70;99.90;;;2.62;67.35;98599.63;6303745;22;20184;-67
2023/03/08 07:06:16;;;;;;;5.70;4.50;;;2.80;99.90;;;2.63;67.11;98593.69;6303570;22;20216;-68
2023/03/08 07:08:44;;;;;;;8.50;4.93;;;2.80;99.90;;;2.62;66.85;98597.09;6303781;22;20169;-68
2023/03/08 07:11:13;;;;;;;6.30;4.37;;;2.90;99.90;;;2.60;66.54;98603.84;6304051;22;20160;-70
2023/03/08 07:13:42;;;;;;;7.07;5.23;;;2.90;99.90;;;2.57;66.36;98604.69;6303905;22;20199;-70
2023/03/08 07:16:13;;;;;;;7.83;4.83;;;2.90;99.90;;;2.55;66.55;98603.03;6303938;22;20157;-69
2023/03/08 07:18:43;;;;;;;7.00;4.90;;;2.90;99.90;;;2.60;65.55;98601.31;6303660;22;20203;-69
2023/03/08 07:21:12;;;;;;;5.77;4.70;;;2.90;99.90;;;2.63;65.73;98599.63;6303795;22;20172;-68
2023/03/08 07:23:41;;;;;;;6.63;4.73;;;3.00;99.90;;;2.79;64.77;98610.56;6303725;22;20176;-68
2023/03/08 07:26:11;;;;;;;6.03;5.13;;;3.20;99.90;;;3.09;64.07;98616.38;6303519;22;20193;-68
2023/03/08 07:28:40;;;;;;;6.80;4.33;;;3.40;99.90;;;3.32;62.49;98611.19;6303657;22;20220;-68
2023/03/08 07:31:11;;;;;;;8.27;4.43;;;3.60;99.90;;;3.54;62.22;98611.94;6303658;22;20173;-70
2023/03/08 07:33:41;;;;;;;7.57;5.00;;;3.80;99.90;;;3.80;60.71;98610.03;6303590;22;20149;-69
2023/03/08 07:36:10;;;;;;;5.67;4.43;;;4.00;99.90;;;3.85;60.62;98608.28;6302448;22;20216;-68
2023/03/08 07:38:38;;;;;;;6.70;5.33;;;4.10;99.90;;;3.78;59.88;98614.28;6302441;22;20181;-69
2023/03/08 07:41:07;;;;;;;7.07;4.67;;;4.00;99.90;;;3.69;60.08;98624.56;6303102;22;20157;-68
2023/03/08 07:43:35;;;;;;;6.07;4.73;;;4.00;99.90;;;3.61;60.11;98623.75;6303575;22;20185;-69
2023/03/08 07:46:05;;;;;;;7.47;4.67;;;3.90;99.90;;;3.56;60.30;98633.13;6304483;22;20193;-69
2023/03/08 07:48:33;;;;;;;8.87;5.07;;;3.80;99.90;;;3.49;60.48;98629.75;6305658;22;20190;-69
2023/03/08 07:51:07;;;;;;;6.97;5.10;;;3.80;99.90;;;3.42;60.38;98622.16;6305361;22;20172;-69
2023/03/08 07:53:36;;;;;;;7.13;4.47;;;3.70;99.90;;;3.30;59.95;98639.19;6305451;22;20168;-69
2023/03/08 07:56:06;;;;;;;6.43;4.87;;;3.60;99.90;;;3.18;61.24;98639.25;6305357;22;20232;-69
2023/03/08 07:58:34;;;;;;;5.30;3.67;;;3.50;99.90;;;3.13;61.38;98639.28;6305420;22;20153;-69
2023/03/08 08:01:09;;;;;;;6.33;4.23;;;3.50;99.90;;;3.21;60.90;98646.88;6305720;22;20165;-68
2023/03/08 08:03:37;;;;;;;5.77;4.53;;;3.60;99.90;;;3.29;60.88;98644.31;6305680;22;20159;-70
2023/03/08 08:06:09;;;;;;;6.30;4.70;;;3.70;99.90;;;3.35;60.81;98637.50;6305103;22;20208;-68
2023/03/08 08:08:38;;;;;;;5.20;4.13;;;3.80;99.90;;;3.45;60.55;98647.59;6305745;22;20153;-69
2023/03/08 08:11:11;;;;;;;8.00;4.90;;;3.90;99.90;;;3.57;60.68;98653.50;6305319;22;20173;-69
2023/03/08 08:13:40;;;;;;;5.83;4.30;;;3.90;99.90;;;3.66;60.27;98661.94;6305391;22;20192;-69
2023/03/08 08:16:09;;;;;;;5.67;3.87;;;4.00;99.90;;;3.64;59.14;98649.19;6305146;22;20188;-69
2023/03/08 08:18:38;;;;;;;4.67;4.13;;;4.00;99.90;;;3.70;59.29;98654.25;6305437;22;20157;-69
2023/03/08 08:21:10;;;;;;;6.03;3.77;;;4.10;99.90;;;3.71;58.59;98658.47;6305525;22;20199;-69
2023/03/08 08:23:40;;;;;;;6.20;3.93;;;4.10;99.90;;;3.71;58.28;98665.28;6305637;22;20149;-69
2023/03/08 08:26:13;;;;;;;10.47;4.23;;;4.10;99.90;;;3.81;58.62;98661.81;6305270;22;20196;-69
2023/03/08 08:28:43;;;;;;;4.50;3.77;;;4.20;99.90;;;3.87;57.57;98667.72;6305273;22;20211;-69
2023/03/08 08:31:15;;;;;;;3.93;3.53;;;4.30;99.90;;;3.92;57.30;98662.59;6305279;22;20161;-69
2023/03/08 08:33:44;;;;;;;3.97;3.23;;;4.30;99.90;;;3.96;57.16;98666.81;6305364;22;20157;-68
2023/03/08 08:36:16;;;;;;;6.33;3.80;;;4.30;99.90;;;3.92;56.38;98664.31;6305305;22;20161;-69
2023/03/08 08:38:46;;;;;;;4.33;3.37;;;4.30;99.90;;;3.96;56.01;98671.06;6305274;22;20196;-69
2023/03/08 08:41:16;;;;;;;3.97;3.30;;;4.30;99.90;;;4.03;55.96;98677.81;6305389;22;20153;-69
2023/03/08 08:43:46;;;;;;;7.10;3.70;;;4.40;99.90;;;4.02;56.63;98671.88;6305488;22;20145;-70
2023/03/08 08:46:16;;;;;;;6.47;3.60;;;4.40;99.90;;;4.04;55.45;98680.34;6305089;22;20257;-69
2023/03/08 08:48:45;;;;;;;5.30;3.20;;;4.40;99.90;;;3.97;55.40;98683.78;6305306;22;20164;-69
2023/03/08 08:51:15;;;;;;;5.60;3.23;;;4.30;99.90;;;4.06;55.57;98686.28;6305094;22;20169;-69
2023/03/08 08:53:44;;;;;;;6.07;3.97;;;4.40;99.90;;;4.11;55.97;98687.09;6305163;22;20165;-69
2023/03/08 08:56:14;;;;;;;6.23;3.90;;;4.50;99.90;;;4.29;54.98;98680.16;6304912;22;20165;-69
2023/03/08 08:58:54;;;;;;;3.47;3.10;;;4.70;99.90;;;4.39;54.66;98691.97;6305244;22;20179;-69
2023/03/08 09:01:26;;;;;;;7.07;4.33;;;4.70;99.90;;;4.60;54.87;98688.38;6305173;22;20212;-69
2023/03/08 09:03:55;;;;;;;4.60;3.67;;;5.00;99.90;;;4.93;53.41;98694.84;6305031;22;20180;-68
2023/03/08 09:06:28;;;;;;;4.93;3.10;;;5.30;99.90;;;5.16;51.59;98675.91;6305087;22;20200;-68
2023/03/08 09:08:58;;;;;;;12.13;3.27;;;5.50;99.90;;;5.38;51.82;98681.59;6305206;22;20204;-69
2023/03/08 09:11:28;;;;;;;4.40;2.50;;;5.80;99.90;;;5.67;51.71;98689.72;6305171;22;20153;-70
2023/03/08 09:13:57;;;;;;;5.47;2.90;;;6.00;99.90;;;6.05;49.67;98688.34;6304905;22;20205;-70
2023/03/08 09:16:29;;;;;;;6.17;2.63;;;6.40;99.90;;;8.09;51.09;98694.66;6304741;22;20157;-69
2023/03/08 09:18:59;;;;;;;3.77;2.70;;;8.60;99.90;;;11.22;41.98;98673.44;6304765;22;20266;-70
2023/03/08 09:21:31;;;;;;;4.27;2.40;;;11.00;99.90;;;14.33;33.58;98681.00;6304664;22;20153;-69
2023/03/08 09:24:00;;;;;;;3.17;2.67;;;13.30;88.30;;;17.30;29.42;98664.75;6304603;22;20161;-70
2023/03/08 09:26:30;;;;;;;3.93;2.77;;;16.00;75.90;;;20.67;24.47;98658.38;6304061;22;20197;-69
2023/03/08 09:29:03;;;;;;;3.63;2.30;;;18.90;64.40;;;22.48;22.07;98675.63;6304495;22;20244;-70
2023/03/08 09:31:33;;;;;;;3.05;2.45;;;20.80;56.70;;;24.27;19.54;98670.72;6304948;22;20156;-69
2023/03/08 09:34:03;;;;;;;8.27;2.70;;;22.80;51.50;;;25.65;16.92;98663.19;6304572;22;20175;-70
2023/03/08 09:36:33;;;;;;;4.75;2.45;;;24.10;46.30;;;26.07;16.05;98653.91;6304681;22;20165;-70
2023/03/08 09:39:04;;;;;;;5.68;2.20;;;24.60;42.10;;;27.18;15.47;98663.09;6304430;22;20173;-69
2023/03/08 09:41:49;;;;;;;2.42;2.20;;;25.80;41.50;;;27.49;14.85;98631.63;6304565;22;20202;-70
2023/03/08 09:44:52;;;;;;;4.55;2.90;;;25.70;40.90;;;28.05;13.21;98639.88;6303980;22;20151;-68
2023/03/08 09:47:45;;;;;;;5.65;2.72;;;26.60;37.90;;;27.76;14.20;98651.75;6299307;22;20188;-72
2023/03/08 09:50:34;;;;;;;3.90;2.25;;;26.70;38.80;;;28.22;13.64;98649.53;6304097;22;20161;-70
2023/03/08 09:53:16;;;;;;;2.42;2.20;;;27.00;37.40;;;28.78;12.35;98642.56;6303699;22;20165;-70
2023/03/08 09:55:51;;;;;;;3.65;2.42;;;27.30;35.50;;;29.88;12.37;98652.47;6303323;22;20149;-69
2023/03/08 09:58:34;;;;;;;4.68;2.20;;;28.60;36.20;;;30.82;11.47;98648.66;6303808;22;20148;-70
2023/03/08 10:01:21;;;;;;;3.00;2.42;;;29.30;34.20;;;31.66;11.14;98637.69;6304380;22;20235;-70
2023/03/08 10:04:19;;;;;;;5.82;2.50;;;30.30;33.80;;;32.29;10.44;98648.59;6304221;22;20202;-70
2023/03/08 10:07:05;;;;;;;4.80;2.42;;;31.00;33.20;;;32.05;10.26;98637.31;6300673;22;20208;-70
2023/03/08 10:09:40;;;;;;;3.67;2.28;;;30.50;31.20;;;31.50;10.34;98638.72;6296636;22;20165;-71
2023/03/08 10:12:20;;;;;;;4.68;2.25;;;30.20;31.60;;;30.17;10.71;98636.72;6293659;22;20168;-71
2023/03/08 10:14:54;;;;;;;4.85;2.65;;;29.10;31.10;;;27.10;11.79;98668.28;6292579;22;20195;-71
2023/03/08 10:17:27;;;;;;;3.53;2.15;;;26.50;31.40;;;23.43;14.23;98659.72;6294913;22;20165;-72
2023/03/08 10:20:00;;;;;;;3.90;1.92;;;23.30;33.30;;;20.67;16.52;98665.41;6284449;22;20282;-75
2023/03/08 10:22:31;;;;;;;2.20;2.00;;;20.50;35.50;;;18.27;18.67;98678.63;6280089;22;20245;-75
2023/03/08 10:25:14;;;;;;;3.65;2.58;;;18.20;37.00;;;17.79;21.42;98678.22;6278034;22;20590;-75
2023/03/08 10:27:44;;;;;;;4.72;2.47;;;17.80;42.50;;;18.93;20.12;98678.69;6277854;22;20561;-75
2023/03/08 10:30:18;;;;;;;3.45;2.40;;;18.60;41.20;;;21.75;18.79;98664.03;6278044;22;20200;-75
2023/03/08 10:32:49;;;;;;;5.20;3.50;;;20.80;42.10;;;25.16;15.74;98654.69;6278296;22;20160;-75
2023/03/08 10:35:30;;;;;;;3.60;2.50;;;23.60;39.80;;;26.65;14.34;98658.75;6277707;22;20173;-76
2023/03/08 10:37:58;;;;;;;3.55;2.10;;;24.80;37.40;;;25.78;13.37;98654.94;6277530;22;20158;-75
2023/03/08 10:40:28;;;;;;;3.30;2.40;;;24.50;34.80;;;23.48;14.63;98657.53;6277154;22;20177;-75
2023/03/08 10:43:02;;;;;;;6.65;3.25;;;22.70;34.60;;;21.11;16.68;98663.81;6277728;22;20183;-74
2023/03/08 10:45:31;;;;;;;4.68;2.92;;;20.80;36.20;;;19.12;18.44;98673.03;6277832;22;20173;-75